createdAt,value
2022-12-26T00:00:14.215Z,100186.69
2022-12-26T00:02:41.787Z,100193.88
2022-12-26T00:05:09.689Z,100189.13
2022-12-26T00:07:37.215Z,100197.06
2022-12-26T00:10:05.075Z,100201.06
2022-12-26T00:12:34.067Z,100197.69
2022-12-26T00:15:01.525Z,100207.13
2022-12-26T00:17:29.083Z,100199.09
2022-12-26T00:19:56.603Z,100185.84
2022-12-26T00:22:24.163Z,100204.28
2022-12-26T00:24:51.644Z,100179.09
2022-12-26T00:27:19.172Z,100201.78
2022-12-26T00:29:48.547Z,100203.75
2022-12-26T00:32:15.991Z,100214.13
2022-12-26T00:34:43.518Z,100210.72
2022-12-26T00:37:11.035Z,100210.34
2022-12-26T00:39:38.502Z,100204.44
2022-12-26T00:42:06.069Z,100209.31
2022-12-26T00:44:33.533Z,100195.81
2022-12-26T00:47:02.455Z,100201.38
2022-12-26T00:49:30.013Z,100204.00
2022-12-26T00:52:17.551Z,100210.06
2022-12-26T00:54:45.071Z,100202.59
2022-12-26T00:57:12.644Z,100213.81
2022-12-26T00:59:40.133Z,100223.00
2022-12-26T01:02:29.410Z,100233.75
2022-12-26T01:04:57.051Z,100233.91
2022-12-26T01:07:24.537Z,100225.53
2022-12-26T01:09:52.047Z,100231.88
2022-12-26T01:12:19.554Z,100226.47
2022-12-26T01:14:47.075Z,100216.63
2022-12-26T01:17:15.939Z,100208.78
2022-12-26T01:19:43.385Z,100213.31
2022-12-26T01:22:10.861Z,100229.03
2022-12-26T01:24:38.427Z,100215.00
2022-12-26T01:27:05.955Z,100221.00
2022-12-26T01:29:33.449Z,100240.81
2022-12-26T01:32:00.986Z,100244.06
2022-12-26T01:34:29.983Z,100233.69
2022-12-26T01:36:57.559Z,100232.56
2022-12-26T01:39:25.106Z,100235.28
2022-12-26T01:41:52.574Z,100250.53
2022-12-26T01:44:38.770Z,100256.59
2022-12-26T01:47:06.292Z,100245.91
2022-12-26T01:49:36.796Z,100258.34
2022-12-26T01:52:04.861Z,100275.91
2022-12-26T01:54:38.198Z,100263.44
2022-12-26T01:57:10.704Z,100267.06
2022-12-26T01:59:38.408Z,100260.50
2022-12-26T02:02:06.053Z,100263.06
2022-12-26T02:04:52.864Z,100242.63
2022-12-26T02:07:20.483Z,100265.41
2022-12-26T02:09:47.947Z,100243.59
2022-12-26T02:12:35.368Z,100248.50
2022-12-26T02:15:04.606Z,100247.81
2022-12-26T02:17:32.170Z,100243.31
2022-12-26T02:20:03.730Z,100250.56
2022-12-26T02:22:51.909Z,100260.91
2022-12-26T02:25:25.824Z,100252.47
2022-12-26T02:28:01.199Z,100242.06
2022-12-26T02:30:32.319Z,100244.94
2022-12-26T02:33:06.444Z,100237.19
2022-12-26T02:35:37.752Z,100237.47
2022-12-26T02:38:08.442Z,100227.16
2022-12-26T02:40:40.022Z,100239.72
2022-12-26T02:43:07.888Z,100241.66
2022-12-26T02:45:55.990Z,100245.94
2022-12-26T02:48:25.258Z,100232.09
2022-12-26T02:51:11.959Z,100242.16
2022-12-26T02:53:58.436Z,100247.28
2022-12-26T02:56:45.480Z,100244.78
2022-12-26T02:59:55.053Z,100261.09
2022-12-26T03:02:42.366Z,100258.34
2022-12-26T03:05:29.313Z,100252.03
2022-12-26T03:08:14.072Z,100243.31
2022-12-26T03:10:59.143Z,100233.06
2022-12-26T03:13:27.510Z,100240.63
2022-12-26T03:16:13.618Z,100250.84
2022-12-26T03:18:57.705Z,100252.47
2022-12-26T03:21:28.845Z,100238.38
2022-12-26T03:23:56.301Z,100245.38
2022-12-26T03:26:41.643Z,100249.97
2022-12-26T03:29:27.728Z,100248.75
2022-12-26T03:31:55.398Z,100258.16
2022-12-26T03:34:24.345Z,100243.16
2022-12-26T03:36:56.642Z,100243.50
2022-12-26T03:39:47.168Z,100246.53
2022-12-26T03:42:32.181Z,100250.38
2022-12-26T03:45:18.661Z,100238.09
2022-12-26T03:48:05.424Z,100241.41
2022-12-26T03:50:53.145Z,100245.66
2022-12-26T03:53:39.215Z,100248.13
2022-12-26T03:56:25.434Z,100247.97
2022-12-26T03:59:12.288Z,100251.50
2022-12-26T04:02:09.294Z,100258.38
2022-12-26T04:04:54.919Z,100249.63
2022-12-26T04:07:55.988Z,100254.22
2022-12-26T04:10:44.116Z,100245.94
2022-12-26T04:13:31.459Z,100252.31
2022-12-26T04:16:20.307Z,100245.34
2022-12-26T04:19:08.869Z,100244.69
2022-12-26T04:22:10.291Z,100259.84
2022-12-26T04:24:58.342Z,100249.56
2022-12-26T04:27:44.039Z,100263.97
2022-12-26T04:30:29.201Z,100276.22
2022-12-26T04:33:14.655Z,100252.66
2022-12-26T04:36:03.859Z,100266.41
2022-12-26T04:38:49.106Z,100268.16
2022-12-26T04:41:35.220Z,100259.53
2022-12-26T04:44:10.257Z,100259.16
2022-12-26T04:46:38.645Z,100258.34
2022-12-26T04:49:24.417Z,100261.03
2022-12-26T04:51:51.921Z,100264.88
2022-12-26T04:54:19.463Z,100276.31
2022-12-26T04:56:48.316Z,100255.00
2022-12-26T04:59:16.132Z,100273.31
2022-12-26T05:02:01.527Z,100262.81
2022-12-26T05:04:46.757Z,100277.88
2022-12-26T05:07:34.308Z,100282.94
2022-12-26T05:10:01.784Z,100283.66
2022-12-26T05:12:30.666Z,100270.78
2022-12-26T05:14:58.204Z,100272.91
2022-12-26T05:17:43.330Z,100267.88
2022-12-26T05:20:29.196Z,100286.53
2022-12-26T05:23:22.435Z,100288.59
2022-12-26T05:26:07.259Z,100274.84
2022-12-26T05:28:45.590Z,100282.69
2022-12-26T05:31:14.236Z,100278.75
2022-12-26T05:33:59.462Z,100278.44
2022-12-26T05:36:30.313Z,100288.28
2022-12-26T05:38:57.838Z,100273.16
2022-12-26T05:41:25.372Z,100273.38
2022-12-26T05:43:54.310Z,100266.59
2022-12-26T05:46:21.886Z,100267.78
2022-12-26T05:48:49.406Z,100280.59
2022-12-26T05:51:16.948Z,100274.31
2022-12-26T05:53:44.424Z,100267.13
2022-12-26T05:56:13.134Z,100281.56
2022-12-26T05:58:40.639Z,100256.88
2022-12-26T06:01:11.316Z,100267.34
2022-12-26T06:03:39.424Z,100261.03
2022-12-26T06:06:07.238Z,100276.16
2022-12-26T06:08:34.769Z,100258.66
2022-12-26T06:11:04.166Z,100271.28
2022-12-26T06:13:31.736Z,100276.63
2022-12-26T06:15:59.560Z,100288.59
2022-12-26T06:18:28.376Z,100288.31
2022-12-26T06:20:55.892Z,100292.84
2022-12-26T06:23:23.449Z,100272.59
2022-12-26T06:25:54.621Z,100267.44
2022-12-26T06:28:22.136Z,100281.63
2022-12-26T06:30:49.731Z,100273.38
2022-12-26T06:33:17.211Z,100266.00
2022-12-26T06:35:46.169Z,100254.34
2022-12-26T06:38:14.169Z,100255.09
2022-12-26T06:40:41.673Z,100249.06
2022-12-26T06:43:09.326Z,100236.94
2022-12-26T06:45:36.953Z,100245.88
2022-12-26T06:48:04.562Z,100243.34
2022-12-26T06:50:32.144Z,100259.22
2022-12-26T06:53:00.993Z,100237.13
2022-12-26T06:55:28.534Z,100244.19
2022-12-26T06:57:56.015Z,100225.53
2022-12-26T07:00:23.517Z,100236.28
2022-12-26T07:02:52.567Z,100227.75
2022-12-26T07:05:20.077Z,100237.75
2022-12-26T07:07:51.228Z,100242.59
2022-12-26T07:10:20.288Z,100243.88
2022-12-26T07:12:47.999Z,100249.34
2022-12-26T07:15:15.675Z,100256.44
2022-12-26T07:17:43.143Z,100264.38
2022-12-26T07:20:11.253Z,100271.16
2022-12-26T07:22:38.940Z,100271.81
2022-12-26T07:25:07.139Z,100277.69
2022-12-26T07:27:35.984Z,100267.69
2022-12-26T07:30:03.457Z,100273.19
2022-12-26T07:32:30.983Z,100276.72
2022-12-26T07:34:58.491Z,100267.69
2022-12-26T07:37:26.030Z,100275.31
2022-12-26T07:39:58.746Z,100274.94
2022-12-26T07:42:26.796Z,100266.75
2022-12-26T07:44:55.918Z,100280.31
2022-12-26T07:47:23.482Z,100286.06
2022-12-26T07:49:50.984Z,100263.28
2022-12-26T07:52:19.907Z,100262.41
2022-12-26T07:54:47.432Z,100269.94
2022-12-26T07:57:46.945Z,100273.91
2022-12-26T08:00:04.888Z,100278.22
2022-12-26T08:02:32.589Z,100276.81
2022-12-26T08:05:00.393Z,100277.09
2022-12-26T08:07:28.456Z,100282.75
2022-12-26T08:09:55.992Z,100271.94
2022-12-26T08:12:24.750Z,100280.97
2022-12-26T08:14:52.463Z,100272.22
2022-12-26T08:17:21.404Z,100286.25
2022-12-26T08:19:48.974Z,100295.50
2022-12-26T08:22:16.578Z,100283.69
2022-12-26T08:24:44.061Z,100296.91
2022-12-26T08:27:12.124Z,100280.78
2022-12-26T08:29:39.605Z,100268.44
2022-12-26T08:32:07.062Z,100268.25
2022-12-26T08:34:37.160Z,100258.00
2022-12-26T08:37:04.708Z,100251.88
2022-12-26T08:39:32.195Z,100273.28
2022-12-26T08:41:59.660Z,100268.44
2022-12-26T08:44:28.198Z,100275.31
2022-12-26T08:46:56.283Z,100274.00
2022-12-26T08:49:23.851Z,100277.69
2022-12-26T08:51:52.730Z,100282.56
2022-12-26T08:54:20.193Z,100280.13
2022-12-26T08:56:47.662Z,100268.25
2022-12-26T08:59:15.734Z,100296.50
2022-12-26T09:01:43.472Z,100291.63
2022-12-26T09:04:11.059Z,100292.94
2022-12-26T09:06:39.648Z,100305.03
2022-12-26T09:09:09.223Z,100290.44
2022-12-26T09:11:36.736Z,100296.25
2022-12-26T09:14:04.338Z,100298.84
2022-12-26T09:16:37.393Z,100280.88
2022-12-26T09:19:06.481Z,100298.91
2022-12-26T09:21:34.232Z,100303.00
2022-12-26T09:24:02.495Z,100290.97
2022-12-26T09:26:31.378Z,100287.38
2022-12-26T09:28:59.072Z,100287.03
2022-12-26T09:31:27.223Z,100282.53
2022-12-26T09:33:54.787Z,100295.13
2022-12-26T09:36:22.933Z,100296.13
2022-12-26T09:38:50.790Z,100285.34
2022-12-26T09:41:26.939Z,100295.72
2022-12-26T09:43:58.717Z,100285.13
2022-12-26T09:46:28.589Z,100302.28
2022-12-26T09:48:57.762Z,100296.09
2022-12-26T09:51:25.627Z,100305.31
2022-12-26T09:53:53.132Z,100314.94
2022-12-26T09:57:01.105Z,100312.31
2022-12-26T09:59:13.111Z,100318.75
2022-12-26T10:01:40.707Z,100337.00
2022-12-26T10:04:08.738Z,100317.25
2022-12-26T10:06:38.064Z,100336.88
2022-12-26T10:09:13.234Z,100342.06
2022-12-26T10:11:43.992Z,100354.13
2022-12-26T10:14:21.400Z,100338.41
2022-12-26T10:16:51.594Z,100355.06
2022-12-26T10:19:30.446Z,100356.25
2022-12-26T10:22:01.620Z,100353.94
2022-12-26T10:24:29.755Z,100353.75
2022-12-26T10:26:57.997Z,100347.44
2022-12-26T10:29:27.779Z,100352.16
2022-12-26T10:31:55.586Z,100349.06
2022-12-26T10:34:24.809Z,100353.13
2022-12-26T10:36:53.071Z,100355.38
2022-12-26T10:39:22.109Z,100347.41
2022-12-26T10:41:52.043Z,100364.25
2022-12-26T10:44:25.593Z,100357.78
2022-12-26T10:47:08.189Z,100356.72
2022-12-26T10:49:35.657Z,100367.00
2022-12-26T10:52:03.448Z,100388.00
2022-12-26T10:54:31.089Z,100413.41
2022-12-26T10:56:59.189Z,100426.25
2022-12-26T10:59:30.167Z,100426.63
2022-12-26T11:02:01.971Z,100440.56
2022-12-26T11:07:21.377Z,100445.16
2022-12-26T11:09:48.907Z,100450.38
2022-12-26T11:12:20.509Z,100476.69
2022-12-26T11:14:48.037Z,100473.97
2022-12-26T11:17:24.867Z,100472.75
2022-12-26T11:20:09.934Z,100468.09
2022-12-26T11:22:37.478Z,100478.47
2022-12-26T11:25:22.918Z,100484.56
2022-12-26T11:27:51.226Z,100495.53
2022-12-26T11:30:20.428Z,100498.97
2022-12-26T11:32:49.508Z,100490.53
2022-12-26T11:35:19.406Z,100488.38
2022-12-26T11:37:47.165Z,100498.50
2022-12-26T11:40:17.465Z,100513.03
2022-12-26T11:42:45.041Z,100508.84
2022-12-26T11:45:12.519Z,100510.91
2022-12-26T11:47:40.007Z,100512.81
2022-12-26T11:50:08.042Z,100507.03
2022-12-26T11:52:38.469Z,100530.28
2022-12-26T11:55:20.807Z,100515.06
2022-12-26T11:57:50.617Z,100540.41
2022-12-26T12:00:22.549Z,100524.72
2022-12-26T12:02:50.237Z,100530.19
2022-12-26T12:05:21.820Z,100531.06
2022-12-26T12:08:03.733Z,100520.72
2022-12-26T12:10:39.192Z,100539.88
2022-12-26T12:13:07.952Z,100555.38
2022-12-26T12:15:37.156Z,100556.47
2022-12-26T12:18:06.589Z,100554.84
2022-12-26T12:20:36.961Z,100557.19
2022-12-26T12:23:13.483Z,100532.91
2022-12-26T12:25:56.249Z,100565.97
2022-12-26T12:28:40.270Z,100555.22
2022-12-26T12:31:08.508Z,100554.06
2022-12-26T12:33:39.832Z,100578.91
2022-12-26T12:36:10.796Z,100561.06
2022-12-26T12:38:50.252Z,100577.81
2022-12-26T12:41:24.196Z,100579.66
2022-12-26T12:43:53.310Z,100577.56
2022-12-26T12:46:22.830Z,100572.69
2022-12-26T12:48:55.631Z,100575.88
2022-12-26T12:51:25.151Z,100579.56
2022-12-26T12:54:04.001Z,100593.72
2022-12-26T12:56:35.807Z,100597.91
2022-12-26T12:59:09.205Z,100596.13
2022-12-26T13:01:37.351Z,100604.41
2022-12-26T13:04:05.633Z,100604.56
2022-12-26T13:06:35.742Z,100597.81
2022-12-26T13:09:06.077Z,100602.38
2022-12-26T13:11:34.680Z,100603.41
2022-12-26T13:14:03.061Z,100599.94
2022-12-26T13:16:31.565Z,100600.44
2022-12-26T13:18:59.825Z,100594.19
2022-12-26T13:21:27.779Z,100594.41
2022-12-26T13:24:14.165Z,100618.38
2022-12-26T13:26:43.723Z,100631.13
2022-12-26T13:29:12.901Z,100627.66
2022-12-26T13:31:41.006Z,100647.13
2022-12-26T13:34:09.737Z,100642.97
2022-12-26T13:36:39.103Z,100621.00
2022-12-26T13:39:36.805Z,100629.16
2022-12-26T13:42:24.252Z,100632.28
2022-12-26T13:44:53.671Z,100631.44
2022-12-26T13:47:34.631Z,100631.50
2022-12-26T13:50:16.972Z,100631.66
2022-12-26T13:52:47.029Z,100645.69
2022-12-26T13:55:34.761Z,100661.38
2022-12-26T13:58:08.898Z,100657.56
2022-12-26T14:00:42.264Z,100658.91
2022-12-26T14:03:24.878Z,100656.56
2022-12-26T14:06:10.562Z,100665.28
2022-12-26T14:08:39.586Z,100653.50
2022-12-26T14:11:11.370Z,100669.56
2022-12-26T14:13:54.114Z,100673.25
2022-12-26T14:16:23.765Z,100664.59
2022-12-26T14:18:53.674Z,100668.81
2022-12-26T14:21:24.207Z,100679.44
2022-12-26T14:23:54.473Z,100687.41
2022-12-26T14:26:26.097Z,100684.94
2022-12-26T14:28:59.248Z,100689.06
2022-12-26T14:31:28.141Z,100681.91
2022-12-26T14:33:57.419Z,100672.28
2022-12-26T14:36:27.898Z,100690.50
2022-12-26T14:38:56.544Z,100695.88
2022-12-26T14:41:42.194Z,100688.22
2022-12-26T14:44:18.473Z,100690.19
2022-12-26T14:47:00.479Z,100701.91
2022-12-26T14:49:37.348Z,100698.03
2022-12-26T14:52:19.756Z,100709.72
2022-12-26T14:54:51.313Z,100712.91
2022-12-26T14:57:37.790Z,100720.50
2022-12-26T15:00:33.361Z,100726.66
2022-12-26T15:03:24.764Z,100729.72
2022-12-26T15:05:53.633Z,100716.16
2022-12-26T15:08:30.699Z,100732.72
2022-12-26T15:11:01.089Z,100746.09
2022-12-26T15:13:38.926Z,100744.69
2022-12-26T15:16:16.331Z,100747.94
2022-12-26T15:18:54.154Z,100745.25
2022-12-26T15:21:36.005Z,100740.34
2022-12-26T15:24:14.382Z,100745.88
2022-12-26T15:26:45.510Z,100749.91
2022-12-26T15:29:29.188Z,100758.97
2022-12-26T15:31:59.021Z,100771.16
2022-12-26T15:34:32.033Z,100775.13
2022-12-26T15:37:01.716Z,100778.44
2022-12-26T15:39:31.385Z,100772.16
2022-12-26T15:42:02.260Z,100779.69
2022-12-26T15:44:30.289Z,100784.34
2022-12-26T15:47:02.849Z,100779.28
2022-12-26T15:49:34.973Z,100775.34
2022-12-26T15:52:06.334Z,100788.16
2022-12-26T15:54:39.135Z,100794.25
2022-12-26T15:57:11.703Z,100803.25
2022-12-26T15:59:47.068Z,100810.22
2022-12-26T16:02:15.620Z,100815.56
2022-12-26T16:04:44.202Z,100811.44
2022-12-26T16:07:18.435Z,100818.97
2022-12-26T16:09:47.088Z,100815.06
2022-12-26T16:12:21.920Z,100829.03
2022-12-26T16:14:49.685Z,100825.09
2022-12-26T16:17:18.847Z,100818.44
2022-12-26T16:19:46.777Z,100813.38
2022-12-26T16:22:33.260Z,100821.72
2022-12-26T16:25:02.144Z,100834.16
2022-12-26T16:27:29.886Z,100829.19
2022-12-26T16:29:58.081Z,100840.78
2022-12-26T16:32:28.135Z,100844.22
2022-12-26T16:34:55.609Z,100833.47
2022-12-26T16:37:24.479Z,100852.56
2022-12-26T16:40:24.946Z,100843.06
2022-12-26T16:42:56.938Z,100833.19
2022-12-26T16:45:24.726Z,100839.31
2022-12-26T16:47:52.301Z,100844.13
2022-12-26T16:50:20.691Z,100834.00
2022-12-26T16:52:48.300Z,100839.28
2022-12-26T16:55:37.074Z,100844.03
2022-12-26T16:58:06.008Z,100855.66
2022-12-26T17:00:34.717Z,100848.84
2022-12-26T17:03:03.722Z,100865.72
2022-12-26T17:05:32.064Z,100861.13
2022-12-26T17:08:00.641Z,100856.19
2022-12-26T17:10:28.781Z,100866.66
2022-12-26T17:12:58.894Z,100875.75
2022-12-26T17:15:27.218Z,100873.94
2022-12-26T17:17:55.031Z,100878.97
2022-12-26T17:20:33.840Z,100884.16
2022-12-26T17:23:01.413Z,100880.69
2022-12-26T17:25:30.227Z,100882.28
2022-12-26T17:28:17.829Z,100885.63
2022-12-26T17:30:46.858Z,100890.59
2022-12-26T17:33:16.335Z,100887.97
2022-12-26T17:36:38.078Z,100904.75
2022-12-26T17:38:31.524Z,100903.25
2022-12-26T17:40:59.468Z,100906.41
2022-12-26T17:43:31.593Z,100904.19
2022-12-26T17:46:00.555Z,100918.41
2022-12-26T17:48:28.688Z,100920.19
2022-12-26T17:50:57.058Z,100931.47
2022-12-26T17:53:26.473Z,100924.66
2022-12-26T17:55:54.491Z,100924.44
2022-12-26T17:58:22.264Z,100930.91
2022-12-26T18:00:50.158Z,100937.28
2022-12-26T18:03:19.144Z,100925.50
2022-12-26T18:05:47.407Z,100930.31
2022-12-26T18:08:26.006Z,100928.97
2022-12-26T18:10:53.667Z,100937.72
2022-12-26T18:13:21.112Z,100944.81
2022-12-26T18:15:48.622Z,100945.75
2022-12-26T18:18:22.030Z,100956.53
2022-12-26T18:20:50.214Z,100958.72
2022-12-26T18:23:17.812Z,100963.09
2022-12-26T18:25:47.341Z,100968.44
2022-12-26T18:28:18.351Z,100958.44
2022-12-26T18:30:46.014Z,100971.28
2022-12-26T18:33:13.705Z,100985.66
2022-12-26T18:35:42.951Z,100977.72
2022-12-26T18:38:11.908Z,100969.69
2022-12-26T18:40:39.859Z,100971.28
2022-12-26T18:43:07.773Z,100966.44
2022-12-26T18:45:35.451Z,100984.31
2022-12-26T18:48:03.271Z,100984.22
2022-12-26T18:50:31.109Z,100986.88
2022-12-26T18:53:00.190Z,100987.69
2022-12-26T18:55:28.569Z,100984.59
2022-12-26T18:57:56.163Z,100990.50
2022-12-26T19:00:24.201Z,100992.19
2022-12-26T19:02:52.069Z,101003.16
2022-12-26T19:05:20.413Z,101006.84
2022-12-26T19:07:48.445Z,101000.31
2022-12-26T19:10:17.565Z,101005.97
2022-12-26T19:12:45.314Z,101007.78
2022-12-26T19:15:13.023Z,100993.94
2022-12-26T19:17:41.049Z,101013.34
2022-12-26T19:20:09.840Z,101008.44
2022-12-26T19:22:37.390Z,101020.97
2022-12-26T19:25:06.004Z,101020.25
2022-12-26T19:27:34.826Z,101018.97
2022-12-26T19:30:02.374Z,101022.81
2022-12-26T19:32:30.187Z,101026.66
2022-12-26T19:34:57.736Z,101028.50
2022-12-26T19:37:25.289Z,101039.44
2022-12-26T19:39:52.782Z,101030.94
2022-12-26T19:42:20.265Z,101022.63
2022-12-26T19:44:49.202Z,101046.59
2022-12-26T19:47:16.683Z,101039.47
2022-12-26T19:49:44.352Z,101048.25
2022-12-26T19:52:12.486Z,101033.09
2022-12-26T19:54:40.037Z,101046.59
2022-12-26T19:57:07.531Z,101036.19
2022-12-26T19:59:35.036Z,101048.72
2022-12-26T20:02:04.067Z,101054.19
2022-12-26T20:04:31.893Z,101060.81
2022-12-26T20:06:59.607Z,101057.97
2022-12-26T20:09:27.311Z,101049.13
2022-12-26T20:11:55.623Z,101060.97
2022-12-26T20:14:23.997Z,101061.09
2022-12-26T20:17:09.549Z,101067.84
2022-12-26T20:19:38.646Z,101073.06
2022-12-26T20:22:06.296Z,101067.69
2022-12-26T20:24:33.820Z,101048.97
2022-12-26T20:27:01.345Z,101075.59
2022-12-26T20:29:28.803Z,101085.38
2022-12-26T20:31:56.339Z,101071.72
2022-12-26T20:34:23.903Z,101055.25
2022-12-26T20:36:52.737Z,101080.75
2022-12-26T20:39:20.323Z,101072.34
2022-12-26T20:41:48.003Z,101084.81
2022-12-26T20:44:15.714Z,101086.94
2022-12-26T20:46:43.568Z,101076.25
2022-12-26T20:49:11.105Z,101096.25
2022-12-26T20:51:39.331Z,101111.53
2022-12-26T20:54:08.539Z,101101.69
2022-12-26T20:56:36.204Z,101114.63
2022-12-26T20:59:03.763Z,101090.25
2022-12-26T21:01:31.438Z,101093.88
2022-12-26T21:03:59.206Z,101097.81
2022-12-26T21:06:27.278Z,101105.66
2022-12-26T21:08:55.614Z,101108.03
2022-12-26T21:11:25.433Z,101115.75
2022-12-26T21:13:53.326Z,101103.13
2022-12-26T21:16:21.343Z,101097.97
2022-12-26T21:18:49.278Z,101109.00
2022-12-26T21:21:17.899Z,101118.19
2022-12-26T21:23:45.454Z,101113.94
2022-12-26T21:26:13.019Z,101126.16
2022-12-26T21:28:41.915Z,101129.56
2022-12-26T21:31:09.923Z,101120.41
2022-12-26T21:33:44.067Z,101122.22
2022-12-26T21:36:12.750Z,101133.41
2022-12-26T21:38:40.477Z,101116.34
2022-12-26T21:41:08.143Z,101116.16
2022-12-26T21:43:35.683Z,101117.44
2022-12-26T21:46:08.200Z,101123.91
2022-12-26T21:48:35.743Z,101136.63
2022-12-26T21:51:03.529Z,101114.88
2022-12-26T21:53:31.017Z,101122.13
2022-12-26T21:56:03.055Z,101139.28
2022-12-26T21:58:30.617Z,101155.28
2022-12-26T22:00:58.145Z,101148.31
2022-12-26T22:03:44.479Z,101150.91
2022-12-26T22:06:15.849Z,101151.53
2022-12-26T22:08:44.396Z,101140.38
2022-12-26T22:11:31.221Z,101145.50
2022-12-26T22:13:58.725Z,101137.47
2022-12-26T22:16:27.201Z,101156.22
2022-12-26T22:18:56.461Z,101154.03
2022-12-26T22:21:24.146Z,101145.66
2022-12-26T22:23:51.938Z,101155.72
2022-12-26T22:26:19.893Z,101158.47
2022-12-26T22:28:47.552Z,101170.75
2022-12-26T22:31:18.663Z,101173.28
2022-12-26T22:33:46.175Z,101169.28
2022-12-26T22:36:15.069Z,101167.75
2022-12-26T22:38:42.546Z,101160.34
2022-12-26T22:41:11.032Z,101158.78
2022-12-26T22:43:38.559Z,101163.66
2022-12-26T22:46:06.234Z,101185.06
2022-12-26T22:48:33.743Z,101169.84
2022-12-26T22:51:01.231Z,101171.00
2022-12-26T22:53:30.460Z,101185.34
2022-12-26T22:55:58.491Z,101173.84
2022-12-26T22:58:26.036Z,101170.47
2022-12-26T23:00:53.514Z,101181.38
2022-12-26T23:03:21.202Z,101176.56
2022-12-26T23:05:48.918Z,101170.03
2022-12-26T23:08:17.304Z,101173.25
2022-12-26T23:10:46.638Z,101192.44
2022-12-26T23:13:14.515Z,101177.75
2022-12-26T23:15:45.887Z,101177.88
2022-12-26T23:18:34.994Z,101177.47
2022-12-26T23:21:21.906Z,101166.34
2022-12-26T23:23:49.656Z,101177.16
2022-12-26T23:26:18.526Z,101180.13
2022-12-26T23:29:03.768Z,101189.47
2022-12-26T23:31:31.266Z,101187.31
2022-12-26T23:33:58.896Z,101186.66
2022-12-26T23:36:26.437Z,101181.38
2022-12-26T23:38:53.979Z,101183.91
2022-12-26T23:41:22.792Z,101178.06
2022-12-26T23:43:50.282Z,101165.50
2022-12-26T23:46:17.838Z,101183.38
2022-12-26T23:48:45.415Z,101180.00
2022-12-26T23:51:12.947Z,101185.03
2022-12-26T23:53:40.419Z,101180.00
2022-12-26T23:56:08.588Z,101180.13
2022-12-26T23:58:37.651Z,101183.72
